Terminal Aerodrome Forecast
Issued by NWS

Home | Current Version | Previous Version | Text Only | Print | Product List | Glossary On
Versions: 1 2 3 4 5 6 7 8 9 10 11 12 13 14 15 16 17 18 19 20 21 22 23 24 25
000
FTUS43 KLSX 030400 AAA
TAFSUS
TAF AMD
KSUS 030444Z 0305/0324 00000KT 2SM BR SKC
      TEMPO 0305/0309 1/2SM FG
     FM030900 00000KT 1/2SM FG FEW005
      TEMPO 0309/0313 1/4SM FG VV005
     FM031300 VRB03KT 4SM BR SKC
     FM031500 16006KT P6SM SCT040=

USA.gov is the U.S. government's official web portal to all federal, state and local government web resources and services.